Terminal Aerodrome Forecast
Issued by NWS

Home | Current Version | Previous Version | Text Only | Print | Product List | Glossary On
Versions: 1 2 3 4 5 6 7 8 9 10 11 12 13 14 15 16 17 18 19 20 21 22
000
FTUS43 KAPX 221029 AAA
TAFPLN
TAF AMD
KPLN 221029Z 2210/2306 VRB03KT 6SM BR VCSH BKN110
     FM221400 21006KT P6SM SCT120
     FM230100 VRB03KT P6SM SCT015 BKN025=

USA.gov is the U.S. government's official web portal to all federal, state and local government web resources and services.